Time;durP1;ratioP1;P1;durP2;ratioP2;P2;SDS_P1;SDS_P2;PMS_P1;PMS_P2;Temp;Humidity;BMP_temperature;BMP_pressure;BME280_temperature;BME280_humidity;BME280_pressure;Samples;Min_cycle;Max_cycle;Signal;HPM_P1;HPM_P2
2023/04/29 00:01:20;;;;;;;9.00;7.00;;;;;;;12.52;100.00;99697.04;108785;1257;75754;-58
2023/04/29 00:03:47;;;;;;;14.50;7.00;;;;;;;12.53;100.00;99698.55;108792;1258;68850;-63
2023/04/29 00:06:14;;;;;;;13.40;7.20;;;;;;;12.59;100.00;99700.02;108728;1257;75703;-59
2023/04/29 00:08:42;;;;;;;14.40;7.80;;;;;;;12.64;100.00;99702.48;108822;1258;62197;-58
2023/04/29 00:11:10;;;;;;;11.10;7.50;;;;;;;12.72;100.00;99705.16;108822;1257;62542;-58
2023/04/29 00:13:39;;;;;;;12.60;7.40;;;;;;;12.82;100.00;99713.67;108765;1257;74694;-64
2023/04/29 00:16:07;;;;;;;10.60;8.10;;;;;;;12.86;100.00;99711.75;108797;1258;67745;-63
2023/04/29 00:18:36;;;;;;;17.40;8.20;;;;;;;12.90;100.00;99701.95;108786;1257;74380;-58
2023/04/29 00:21:04;;;;;;;20.30;8.90;;;;;;;12.97;100.00;99696.67;108749;1257;61295;-61
2023/04/29 00:23:32;;;;;;;16.40;8.20;;;;;;;13.04;100.00;99691.04;108755;1257;62384;-59
2023/04/29 00:25:59;;;;;;;11.20;7.00;;;;;;;13.08;100.00;99694.73;108698;1257;75897;-58
2023/04/29 00:28:26;;;;;;;10.70;7.30;;;;;;;13.10;100.00;99695.94;108761;1258;67788;-65
2023/04/29 00:30:54;;;;;;;11.00;6.50;;;;;;;13.11;100.00;99702.17;108794;1257;74135;-58
2023/04/29 00:33:22;;;;;;;8.70;6.50;;;;;;;13.15;100.00;99699.89;108792;1258;64196;-58
2023/04/29 00:35:49;;;;;;;6.90;5.00;;;;;;;13.16;100.00;99683.44;108676;1260;62503;-58
2023/04/29 00:38:16;;;;;;;6.10;4.10;;;;;;;13.10;100.00;99684.34;108807;1258;75928;-57
2023/04/29 00:40:43;;;;;;;7.40;4.50;;;;;;;13.04;100.00;99686.08;108737;1259;68415;-59
2023/04/29 00:43:10;;;;;;;8.10;4.00;;;;;;;12.99;100.00;99696.30;108817;1258;74779;-58
2023/04/29 00:45:37;;;;;;;10.00;4.20;;;;;;;12.92;100.00;99703.47;108746;1258;61745;-63
2023/04/29 00:48:05;;;;;;;7.90;4.90;;;;;;;12.87;100.00;99701.85;108736;1258;61229;-58
2023/04/29 00:50:32;;;;;;;11.00;4.20;;;;;;;12.84;100.00;99700.19;108871;1257;74908;-58
2023/04/29 00:52:59;;;;;;;7.20;4.50;;;;;;;12.81;100.00;99697.78;108725;1257;68514;-59
2023/04/29 00:55:27;;;;;;;8.40;4.90;;;;;;;12.81;100.00;99691.16;108787;1257;74913;-58
2023/04/29 00:57:54;;;;;;;8.60;5.60;;;;;;;12.84;100.00;99691.97;108740;1259;64140;-64
2023/04/29 01:00:23;;;;;;;9.10;5.20;;;;;;;12.89;100.00;99691.98;108771;1259;62638;-59
2023/04/29 01:02:50;;;;;;;16.90;6.10;;;;;;;12.97;100.00;99706.42;108716;1257;75688;-64
2023/04/29 01:05:17;;;;;;;8.10;5.60;;;;;;;13.05;100.00;99704.67;108727;1259;69324;-58
2023/04/29 01:08:06;;;;;;;8.90;5.90;;;;;;;13.11;100.00;99708.02;108783;1257;75044;-58
2023/04/29 01:10:53;;;;;;;8.20;5.70;;;;;;;13.16;100.00;99715.17;108701;1259;63782;-58
2023/04/29 01:13:29;;;;;;;10.20;6.60;;;;;;;13.21;100.00;99701.90;108691;1257;61079;-59
2023/04/29 01:16:02;;;;;;;9.30;6.00;;;;;;;13.22;100.00;99696.34;108661;1258;74811;-59
2023/04/29 01:18:33;;;;;;;11.60;7.00;;;;;;;13.27;100.00;99699.33;108819;1257;69205;-61
2023/04/29 01:21:01;;;;;;;12.80;7.20;;;;;;;13.31;100.00;99710.06;108711;1258;74585;-59
2023/04/29 01:23:28;;;;;;;9.90;6.60;;;;;;;13.35;100.00;99713.00;108640;1258;64344;-58
2023/04/29 01:25:56;;;;;;;7.70;6.20;;;;;;;13.38;100.00;99716.40;108782;1257;62806;-59
2023/04/29 01:29:04;;;;;;;7.60;6.20;;;;;;;13.34;100.00;99712.13;108782;1259;74923;-58
2023/04/29 01:31:41;;;;;;;9.70;6.60;;;;;;;13.28;100.00;99721.52;108770;1257;69155;-58
2023/04/29 01:34:43;;;;;;;8.60;6.50;;;;;;;13.26;100.00;99723.05;108708;1258;73742;-65
2023/04/29 01:37:33;;;;;;;15.10;7.40;;;;;;;13.29;100.00;99717.99;108538;1257;61111;-58
2023/04/29 01:40:19;;;;;;;13.70;7.50;;;;;;;13.35;100.00;99711.95;108664;1257;62356;-59
2023/04/29 01:43:08;;;;;;;11.70;7.00;;;;;;;13.44;100.00;99713.52;108652;1257;74632;-58
2023/04/29 01:45:35;;;;;;;8.10;6.90;;;;;;;13.49;100.00;99707.45;108639;1257;69233;-58
2023/04/29 01:48:03;;;;;;;12.90;7.50;;;;;;;13.53;100.00;99699.96;108794;1258;74667;-58
2023/04/29 01:50:31;;;;;;;12.40;7.30;;;;;;;13.56;100.00;99695.66;108705;1257;62494;-60
2023/04/29 01:53:07;;;;;;;10.10;6.90;;;;;;;13.63;100.00;99697.41;108708;1257;61459;-63
2023/04/29 01:55:34;;;;;;;13.60;7.50;;;;;;;13.67;100.00;99705.90;108807;1257;74887;-58
2023/04/29 01:58:14;;;;;;;9.50;6.90;;;;;;;13.64;100.00;99713.91;108722;1257;69149;-58
2023/04/29 02:00:49;;;;;;;7.80;6.70;;;;;;;13.58;100.00;99708.09;108698;1258;75173;-59
2023/04/29 02:03:16;;;;;;;10.20;7.40;;;;;;;13.56;100.00;99704.56;108731;1259;64328;-58
2023/04/29 02:05:46;;;;;;;10.50;7.00;;;;;;;13.58;100.00;99710.51;108703;1257;61157;-58
2023/04/29 02:08:13;;;;;;;9.00;7.90;;;;;;;13.60;100.00;99714.92;108782;1257;75904;-58
2023/04/29 02:10:53;;;;;;;10.80;8.40;;;;;;;13.59;100.00;99722.58;108761;1258;68459;-58
2023/04/29 02:13:35;;;;;;;9.70;7.70;;;;;;;13.57;100.00;99727.08;108705;1257;73707;-60
2023/04/29 02:16:07;;;;;;;14.20;7.90;;;;;;;13.57;100.00;99714.35;108723;1257;63962;-60
2023/04/29 02:18:34;;;;;;;10.90;7.90;;;;;;;13.57;100.00;99723.41;108632;1259;61508;-60
2023/04/29 02:21:03;;;;;;;13.60;8.50;;;;;;;13.57;100.00;99723.25;108747;1257;75614;-58
2023/04/29 02:23:32;;;;;;;13.60;9.40;;;;;;;13.57;100.00;99728.48;108824;1257;69276;-58
2023/04/29 02:26:00;;;;;;;25.10;12.30;;;;;;;13.61;100.00;99727.73;108728;1257;74057;-58
2023/04/29 02:28:27;;;;;;;26.60;14.00;;;;;;;13.63;100.00;99725.33;108675;1257;61153;-60
2023/04/29 02:30:54;;;;;;;30.10;13.50;;;;;;;13.66;100.00;99727.88;108821;1257;62638;-58
2023/04/29 02:33:22;;;;;;;24.20;14.30;;;;;;;13.65;100.00;99725.96;108797;1257;76206;-59
2023/04/29 02:35:49;;;;;;;29.70;13.90;;;;;;;13.64;100.00;99729.64;108779;1259;69356;-58
2023/04/29 02:38:16;;;;;;;22.70;13.00;;;;;;;13.65;100.00;99728.21;108794;1258;74594;-58
2023/04/29 02:40:44;;;;;;;20.40;11.40;;;;;;;13.69;100.00;99723.17;108733;1257;62584;-58
2023/04/29 02:43:11;;;;;;;23.90;11.30;;;;;;;13.73;100.00;99719.84;108785;1258;61365;-58
2023/04/29 02:45:38;;;;;;;21.10;11.00;;;;;;;13.73;100.00;99730.11;108795;1257;75627;-58
2023/04/29 02:48:06;;;;;;;17.90;9.70;;;;;;;13.68;100.00;99732.34;108758;1257;69035;-58
2023/04/29 02:50:33;;;;;;;11.60;8.90;;;;;;;13.61;100.00;99728.73;108688;1258;74666;-62
2023/04/29 02:53:01;;;;;;;13.10;8.80;;;;;;;13.56;100.00;99728.73;108662;1261;64417;-58
2023/04/29 02:55:28;;;;;;;11.30;7.90;;;;;;;13.54;100.00;99737.57;108738;1258;61340;-57
2023/04/29 02:57:58;;;;;;;11.80;8.90;;;;;;;13.51;100.00;99748.20;108754;1258;75956;-58
2023/04/29 03:00:25;;;;;;;9.60;7.50;;;;;;;13.49;100.00;99751.48;108769;1259;68815;-61
2023/04/29 03:02:52;;;;;;;12.30;7.60;;;;;;;13.46;100.00;99750.18;108637;1258;73862;-64
2023/04/29 03:05:19;;;;;;;11.30;7.60;;;;;;;13.46;100.00;99754.00;108782;1258;64175;-58
2023/04/29 03:07:46;;;;;;;12.70;8.50;;;;;;;13.47;100.00;99764.34;108754;1258;61493;-58
2023/04/29 03:10:13;;;;;;;9.90;7.50;;;;;;;13.46;100.00;99772.09;108724;1258;75527;-59
2023/04/29 03:12:40;;;;;;;8.10;6.20;;;;;;;13.49;100.00;99772.39;108767;1257;69169;-64
2023/04/29 03:15:09;;;;;;;9.90;6.70;;;;;;;13.52;100.00;99772.06;108732;1258;73304;-58
2023/04/29 03:17:36;;;;;;;9.90;6.80;;;;;;;13.52;100.00;99781.01;108793;1258;64303;-58
2023/04/29 03:20:04;;;;;;;12.60;6.90;;;;;;;13.51;100.00;99782.06;108774;1259;62459;-57
2023/04/29 03:22:31;;;;;;;12.50;7.60;;;;;;;13.51;100.00;99783.80;108689;1258;74834;-63
2023/04/29 03:24:58;;;;;;;10.10;7.00;;;;;;;13.57;100.00;99780.48;108720;1259;68092;-58
2023/04/29 03:27:25;;;;;;;22.60;8.60;;;;;;;13.69;100.00;99782.37;108721;1259;75081;-58
2023/04/29 03:29:52;;;;;;;14.50;8.40;;;;;;;13.78;100.00;99782.57;108786;1258;62859;-58
2023/04/29 03:32:20;;;;;;;11.60;7.50;;;;;;;13.82;100.00;99786.40;108690;1258;62286;-60
2023/04/29 03:34:48;;;;;;;15.70;7.90;;;;;;;13.87;100.00;99784.77;108753;1262;75857;-62
2023/04/29 03:37:35;;;;;;;12.50;10.10;;;;;;;13.90;100.00;99792.67;108704;1259;69372;-58
2023/04/29 03:40:28;;;;;;;14.60;8.40;;;;;;;13.96;100.00;99788.06;108665;1259;74891;-58
2023/04/29 03:42:55;;;;;;;11.50;8.10;;;;;;;14.06;100.00;99788.98;108729;1257;62239;-58
2023/04/29 03:45:23;;;;;;;19.50;8.60;;;;;;;14.15;100.00;99791.84;108656;1258;62263;-58
2023/04/29 03:47:52;;;;;;;16.10;8.10;;;;;;;14.23;100.00;99789.91;108696;1260;75862;-61
2023/04/29 03:50:19;;;;;;;13.20;9.00;;;;;;;14.28;100.00;99787.44;108741;1259;67481;-62
2023/04/29 03:52:46;;;;;;;8.50;7.30;;;;;;;14.32;100.00;99788.73;108688;1258;75435;-58
2023/04/29 03:55:14;;;;;;;11.20;7.80;;;;;;;14.40;100.00;99786.27;108726;1259;63132;-58
2023/04/29 03:57:42;;;;;;;12.30;7.60;;;;;;;14.40;100.00;99788.24;108716;1257;62315;-58
2023/04/29 04:00:10;;;;;;;10.50;8.10;;;;;;;14.42;100.00;99795.39;108681;1257;75883;-58
2023/04/29 04:02:43;;;;;;;10.70;7.80;;;;;;;14.48;100.00;99801.50;108715;1259;69229;-61
2023/04/29 04:05:11;;;;;;;12.10;9.00;;;;;;;14.50;100.00;99806.98;108688;1259;74834;-58
2023/04/29 04:07:40;;;;;;;11.70;8.40;;;;;;;14.56;100.00;99815.69;108726;1259;61460;-58
2023/04/29 04:10:36;;;;;;;12.10;8.30;;;;;;;14.66;100.00;99817.22;108474;1265;62451;-58
2023/04/29 04:13:10;;;;;;;10.70;8.70;;;;;;;14.70;100.00;99821.33;108757;1259;75673;-58
2023/04/29 04:15:37;;;;;;;11.30;7.50;;;;;;;14.77;100.00;99826.40;108761;1259;68384;-58
2023/04/29 04:18:05;;;;;;;16.90;8.40;;;;;;;14.81;100.00;99829.18;108710;1259;74965;-59
2023/04/29 04:20:35;;;;;;;18.10;9.20;;;;;;;14.87;100.00;99833.95;108701;1260;61520;-58
2023/04/29 04:23:02;;;;;;;17.00;9.20;;;;;;;14.88;100.00;99839.66;108672;1259;62167;-58
2023/04/29 04:25:29;;;;;;;11.60;8.00;;;;;;;14.87;100.00;99838.79;108789;1259;76176;-64
2023/04/29 04:28:06;;;;;;;11.50;7.80;;;;;;;14.84;100.00;99844.92;108758;1258;68020;-61
2023/04/29 04:30:48;;;;;;;10.60;8.50;;;;;;;14.81;100.00;99843.15;108706;1259;74674;-59
2023/04/29 04:33:15;;;;;;;9.90;8.30;;;;;;;14.79;100.00;99837.64;108643;1258;62991;-64
2023/04/29 04:35:44;;;;;;;12.60;8.60;;;;;;;14.83;100.00;99831.34;108798;1258;61136;-60
2023/04/29 04:38:12;;;;;;;11.70;8.60;;;;;;;14.86;100.00;99829.48;108759;1258;73592;-64
2023/04/29 04:40:42;;;;;;;14.70;9.70;;;;;;;14.87;100.00;99833.71;108813;1259;69902;-60
2023/04/29 04:43:31;;;;;;;11.30;7.50;;;;;;;14.81;100.00;99846.98;108649;1259;74816;-60
2023/04/29 04:45:58;;;;;;;8.50;7.00;;;;;;;14.72;100.00;99850.29;108734;1258;62417;-60
2023/04/29 04:48:25;;;;;;;8.40;7.10;;;;;;;14.60;100.00;99849.48;108716;1258;62434;-60
2023/04/29 04:50:53;;;;;;;8.70;7.20;;;;;;;14.47;100.00;99852.55;108599;1258;198440;-60
2023/04/29 04:53:21;;;;;;;11.90;6.70;;;;;;;14.34;100.00;99857.15;108760;1259;68207;-59
2023/04/29 04:56:01;;;;;;;7.60;6.50;;;;;;;14.24;100.00;99869.44;108688;1258;74649;-63
2023/04/29 04:58:32;;;;;;;8.80;6.70;;;;;;;14.15;100.00;99876.05;108729;1259;62959;-58
2023/04/29 05:00:59;;;;;;;10.80;6.60;;;;;;;14.09;100.00;99884.13;108740;1259;61211;-59
2023/04/29 05:03:27;;;;;;;8.00;6.00;;;;;;;14.04;100.00;99889.42;108753;1258;75945;-59
2023/04/29 05:05:58;;;;;;;6.80;5.40;;;;;;;13.98;100.00;99901.27;108703;1259;68145;-62
2023/04/29 05:08:26;;;;;;;7.90;6.00;;;;;;;13.94;100.00;99908.92;108743;1259;74815;-63
2023/04/29 05:10:54;;;;;;;8.20;5.30;;;;;;;13.90;100.00;99913.52;108757;1259;64394;-59
2023/04/29 05:13:22;;;;;;;7.80;5.50;;;;;;;13.88;100.00;99915.55;108724;1259;62317;-58
2023/04/29 05:15:49;;;;;;;6.70;4.90;;;;;;;13.87;100.00;99917.05;108750;1258;75890;-59
2023/04/29 05:18:19;;;;;;;9.10;5.30;;;;;;;13.86;100.00;99917.57;108650;1259;67832;-62
2023/04/29 05:20:48;;;;;;;7.00;4.80;;;;;;;13.85;100.00;99921.04;108669;1257;74645;-58
2023/04/29 05:23:15;;;;;;;7.10;3.80;;;;;;;13.83;100.00;99924.27;108749;1260;64265;-59
2023/04/29 05:25:44;;;;;;;5.40;4.10;;;;;;;13.80;100.00;99924.34;108776;1258;62242;-59
2023/04/29 05:28:11;;;;;;;7.90;4.50;;;;;;;13.80;100.00;99918.70;108742;1259;75906;-60
2023/04/29 05:30:39;;;;;;;5.40;4.30;;;;;;;13.81;100.00;99905.98;108700;1259;68390;-60
2023/04/29 05:33:07;;;;;;;17.70;4.50;;;;;;;13.82;100.00;99899.94;108776;1259;74625;-61
2023/04/29 05:35:34;;;;;;;6.20;3.90;;;;;;;13.85;100.00;99899.14;108705;1259;60860;-61
2023/04/29 05:38:02;;;;;;;5.80;4.30;;;;;;;13.88;100.00;99900.62;108776;1259;62586;-61
2023/04/29 05:40:37;;;;;;;7.30;5.00;;;;;;;13.91;100.00;99899.85;108719;1259;76609;-61
2023/04/29 05:43:28;;;;;;;8.00;5.40;;;;;;;13.92;100.00;99892.17;108763;1258;69365;-61
2023/04/29 05:45:55;;;;;;;9.70;5.20;;;;;;;13.95;100.00;99888.61;108684;1259;73716;-63
2023/04/29 05:48:23;;;;;;;34.40;21.60;;;;;;;13.99;100.00;99881.76;108751;1257;62734;-61
2023/04/29 05:50:51;;;;;;;10.20;6.60;;;;;;;14.09;100.00;99885.59;108744;1257;62380;-59
2023/04/29 05:53:18;;;;;;;7.00;4.40;;;;;;;14.23;100.00;99892.35;108762;1258;76200;-60
2023/04/29 05:55:46;;;;;;;6.40;4.20;;;;;;;14.34;100.00;99891.64;108755;1258;69575;-59
2023/04/29 05:58:15;;;;;;;6.40;3.60;;;;;;;14.42;100.00;99887.17;108664;1258;75748;-59
2023/04/29 06:00:43;;;;;;;4.90;3.40;;;;;;;14.49;100.00;99886.19;108730;1259;64077;-59
2023/04/29 06:03:14;;;;;;;5.30;3.40;;;;;;;14.57;100.00;99889.91;108702;1260;61474;-60
2023/04/29 06:05:41;;;;;;;4.30;3.60;;;;;;;14.67;100.00;99892.96;108754;1259;75272;-63
2023/04/29 06:08:17;;;;;;;4.50;3.00;;;;;;;14.80;100.00;99894.86;108789;1258;69630;-59
2023/04/29 06:11:02;;;;;;;3.20;1.80;;;;;;;14.96;100.00;99896.78;108735;1258;74538;-59
2023/04/29 06:13:29;;;;;;;2.50;1.50;;;;;;;15.13;100.00;99900.53;108745;1258;64462;-64
2023/04/29 06:15:56;;;;;;;3.80;1.90;;;;;;;15.28;100.00;99902.64;108712;1259;62050;-60
2023/04/29 06:18:24;;;;;;;2.60;1.70;;;;;;;15.48;100.00;99902.95;108724;1257;74903;-59
2023/04/29 06:20:51;;;;;;;6.40;4.40;;;;;;;15.68;100.00;99896.05;108731;1259;69478;-59
2023/04/29 06:23:19;;;;;;;3.10;2.10;;;;;;;15.87;100.00;99893.98;108728;1259;74882;-59
2023/04/29 06:25:46;;;;;;;2.60;2.00;;;;;;;15.98;100.00;99888.17;108642;1258;63960;-59
2023/04/29 06:28:13;;;;;;;4.70;4.00;;;;;;;16.00;100.00;99888.33;108684;1263;60911;-57
2023/04/29 06:30:40;;;;;;;8.80;7.90;;;;;;;16.07;100.00;99886.48;108743;1259;75733;-57
2023/04/29 06:33:08;;;;;;;3.20;2.40;;;;;;;16.17;100.00;99886.98;108736;1258;69106;-58
2023/04/29 06:35:39;;;;;;;4.00;1.90;;;;;;;16.25;100.00;99890.85;108722;1257;73629;-62
2023/04/29 06:38:32;;;;;;;4.60;3.10;;;;;;;16.33;100.00;99883.43;108639;1257;63272;-57
2023/04/29 06:41:17;;;;;;;3.20;2.10;;;;;;;16.46;100.00;99879.26;108739;1257;61622;-61
2023/04/29 06:43:47;;;;;;;3.70;1.70;;;;;;;16.60;100.00;99878.39;108841;1259;75941;-57
2023/04/29 06:46:38;;;;;;;2.30;1.70;;;;;;;16.75;100.00;99880.55;108823;1259;68090;-57
2023/04/29 06:49:42;;;;;;;3.40;1.90;;;;;;;16.90;100.00;99876.80;108128;1268;73921;-58
2023/04/29 06:52:09;;;;;;;2.60;1.90;;;;;;;17.06;100.00;99881.31;108681;1259;63051;-57
2023/04/29 06:54:36;;;;;;;2.80;2.00;;;;;;;17.17;100.00;99888.68;108679;1258;62848;-62
2023/04/29 06:57:03;;;;;;;2.50;1.60;;;;;;;17.25;100.00;99889.27;108833;1259;74921;-58
2023/04/29 06:59:31;;;;;;;2.50;1.70;;;;;;;17.32;100.00;99889.76;108794;1257;69096;-57
2023/04/29 07:01:58;;;;;;;6.60;1.40;;;;;;;17.37;100.00;99895.33;108788;1259;74981;-58
2023/04/29 07:04:25;;;;;;;3.10;1.60;;;;;;;17.36;100.00;99893.69;108752;1259;61411;-63
2023/04/29 07:06:53;;;;;;;3.00;1.80;;;;;;;17.32;100.00;99888.96;108755;1258;62628;-58
2023/04/29 07:09:20;;;;;;;2.70;1.70;;;;;;;17.30;100.00;99884.02;108747;1258;75724;-57
2023/04/29 07:11:47;;;;;;;3.20;1.70;;;;;;;17.33;100.00;99879.66;108787;1257;68769;-57
2023/04/29 07:14:14;;;;;;;3.00;1.70;;;;;;;17.37;100.00;99878.84;108764;1257;73462;-57
2023/04/29 07:16:41;;;;;;;3.50;1.90;;;;;;;17.46;100.00;99877.09;108702;1258;61748;-61
2023/04/29 07:19:09;;;;;;;3.60;1.70;;;;;;;17.50;100.00;99877.64;108740;1260;62397;-57
2023/04/29 07:21:36;;;;;;;4.00;2.10;;;;;;;17.57;100.00;99877.33;108823;1259;75971;-57
2023/04/29 07:24:04;;;;;;;5.90;2.00;;;;;;;17.66;100.00;99871.21;108758;1258;69521;-59
2023/04/29 07:26:31;;;;;;;3.00;1.90;;;;;;;17.74;100.00;99864.61;108714;1259;73789;-58
2023/04/29 07:28:58;;;;;;;3.20;2.00;;;;;;;17.77;100.00;99859.17;108696;1258;64093;-59
2023/04/29 07:31:25;;;;;;;4.50;1.60;;;;;;;17.81;100.00;99854.39;108764;1259;61856;-58
2023/04/29 07:33:54;;;;;;;4.00;2.20;;;;;;;17.93;100.00;99847.36;108749;1258;74863;-57
2023/04/29 07:36:21;;;;;;;3.70;2.40;;;;;;;18.16;100.00;99845.33;108796;1260;69246;-59
2023/04/29 07:38:48;;;;;;;4.50;2.20;;;;;;;18.42;100.00;99846.44;108694;1257;74616;-60
2023/04/29 07:41:15;;;;;;;3.50;2.40;;;;;;;18.58;100.00;99846.48;108694;1263;63548;-59
2023/04/29 07:43:42;;;;;;;4.00;2.70;;;;;;;18.71;100.00;99844.92;108750;1258;62437;-59
2023/04/29 07:46:09;;;;;;;5.80;3.00;;;;;;;18.87;100.00;99846.92;108771;1258;75897;-58
2023/04/29 07:48:40;;;;;;;3.90;2.90;;;;;;;19.15;100.00;99847.67;108722;1258;69289;-64
2023/04/29 07:51:11;;;;;;;4.00;2.70;;;;;;;19.37;100.00;99850.10;108681;1259;73930;-59
2023/04/29 07:53:39;;;;;;;4.90;3.00;;;;;;;19.61;100.00;99856.14;108741;1258;62776;-59
2023/04/29 07:56:07;;;;;;;4.10;3.00;;;;;;;19.90;100.00;99854.15;108757;1257;62860;-58
2023/04/29 07:58:34;;;;;;;6.60;4.20;;;;;;;20.07;100.00;99853.89;108780;1258;76060;-62
2023/04/29 08:01:08;;;;;;;5.60;3.40;;;;;;;20.04;100.00;99849.54;108688;1260;70494;-62
2023/04/29 08:03:36;;;;;;;4.90;3.30;;;;;;;19.92;100.00;99846.13;108735;1260;73093;-58
2023/04/29 08:06:07;;;;;;;4.10;3.50;;;;;;;19.62;100.00;99842.09;108707;1260;63820;-59
2023/04/29 08:08:35;;;;;;;5.10;3.80;;;;;;;19.25;100.00;99842.64;108680;1258;62284;-63
2023/04/29 08:11:02;;;;;;;6.40;4.20;;;;;;;19.09;100.00;99845.18;108761;1259;75980;-58
2023/04/29 08:13:29;;;;;;;4.80;3.80;;;;;;;19.07;100.00;99846.81;108806;1257;68877;-58
2023/04/29 08:15:56;;;;;;;4.90;3.30;;;;;;;19.03;100.00;99849.50;108679;1258;73816;-58
2023/04/29 08:18:24;;;;;;;4.70;3.90;;;;;;;19.01;100.00;99849.91;108768;1260;63842;-63
2023/04/29 08:20:51;;;;;;;5.50;4.20;;;;;;;19.12;100.00;99849.83;108745;1259;61308;-62
2023/04/29 08:23:18;;;;;;;7.30;4.10;;;;;;;19.26;100.00;99854.91;108797;1258;76404;-59
2023/04/29 08:25:45;;;;;;;4.70;3.70;;;;;;;19.44;100.00;99857.98;108746;1263;67864;-58
2023/04/29 08:28:12;;;;;;;7.10;4.00;;;;;;;19.58;100.00;99852.67;108732;1261;74919;-58
2023/04/29 08:30:39;;;;;;;4.80;3.40;;;;;;;19.68;100.00;99844.05;108771;1261;63010;-64
2023/04/29 08:33:07;;;;;;;4.90;3.20;;;;;;;19.69;100.00;99843.16;108722;1258;61135;-62
2023/04/29 08:35:36;;;;;;;4.80;3.50;;;;;;;19.50;100.00;99843.30;108794;1260;76049;-58
2023/04/29 08:38:07;;;;;;;5.90;3.40;;;;;;;19.23;100.00;99842.78;108793;1259;69335;-58
2023/04/29 08:40:46;;;;;;;4.50;3.20;;;;;;;18.95;100.00;99840.98;108753;1259;74951;-59
2023/04/29 08:43:14;;;;;;;7.00;4.20;;;;;;;18.70;100.00;99834.48;108789;1259;62455;-58
2023/04/29 08:45:42;;;;;;;5.70;3.90;;;;;;;18.51;100.00;99834.83;108774;1259;62376;-59
2023/04/29 08:48:09;;;;;;;5.10;3.40;;;;;;;18.42;100.00;99833.25;108712;1259;75696;-58
2023/04/29 08:50:39;;;;;;;5.90;4.20;;;;;;;18.43;100.00;99834.21;108777;1261;69619;-63
2023/04/29 08:53:09;;;;;;;6.50;3.50;;;;;;;18.64;100.00;99837.85;108717;1262;73621;-59
2023/04/29 08:55:41;;;;;;;5.60;3.60;;;;;;;18.95;100.00;99837.75;108774;1259;62344;-58
2023/04/29 08:58:09;;;;;;;7.50;4.40;;;;;;;19.25;100.00;99832.34;108769;1259;62039;-58
2023/04/29 09:00:36;;;;;;;4.50;3.80;;;;;;;19.50;100.00;99823.10;108735;1260;74612;-64
2023/04/29 09:03:15;;;;;;;6.00;4.90;;;;;;;19.77;100.00;99817.14;108786;1259;68301;-64
2023/04/29 09:05:45;;;;;;;6.30;4.60;;;;;;;20.08;100.00;99810.82;108670;1260;73806;-58
2023/04/29 09:08:12;;;;;;;7.20;4.80;;;;;;;20.36;100.00;99799.73;108726;1260;61356;-58
2023/04/29 09:10:41;;;;;;;5.70;4.70;;;;;;;20.61;100.00;99801.45;108743;1260;62389;-58
2023/04/29 09:13:08;;;;;;;5.50;4.60;;;;;;;20.87;100.00;99799.83;108774;1261;75897;-60
2023/04/29 09:15:40;;;;;;;9.00;4.60;;;;;;;21.14;100.00;99801.02;108829;1257;68789;-59
2023/04/29 09:18:07;;;;;;;5.10;4.00;;;;;;;21.62;100.00;99802.73;108771;1260;74850;-63
2023/04/29 09:20:34;;;;;;;8.40;4.90;;;;;;;22.10;100.00;99800.54;108776;1260;61201;-57
2023/04/29 09:23:04;;;;;;;5.30;4.50;;;;;;;22.40;100.00;99792.81;108765;1259;62629;-61
2023/04/29 09:25:31;;;;;;;5.00;4.10;;;;;;;22.67;100.00;99797.88;108845;1257;74428;-59
2023/04/29 09:28:01;;;;;;;6.00;3.70;;;;;;;22.81;100.00;99796.70;108786;1257;69188;-59
2023/04/29 09:30:28;;;;;;;5.60;4.10;;;;;;;22.89;100.00;99792.87;108644;1257;74728;-58
2023/04/29 09:33:03;;;;;;;4.60;3.50;;;;;;;23.10;100.00;99793.02;108736;1260;62339;-59
2023/04/29 09:35:30;;;;;;;5.30;3.70;;;;;;;23.41;100.00;99794.48;108795;1257;61959;-58
2023/04/29 09:38:07;;;;;;;5.10;3.70;;;;;;;23.65;100.00;99794.28;108797;1257;76303;-58
2023/04/29 09:40:35;;;;;;;4.90;3.70;;;;;;;23.74;100.00;99790.42;108763;1257;69326;-58
2023/04/29 09:43:22;;;;;;;4.30;3.30;;;;;;;23.94;100.00;99781.44;108825;1257;74793;-59
2023/04/29 09:45:49;;;;;;;5.40;4.10;;;;;;;24.03;100.00;99777.77;108750;1257;62191;-59
2023/04/29 09:48:17;;;;;;;5.10;3.60;;;;;;;24.05;100.00;99777.41;108772;1257;61380;-58
2023/04/29 09:50:45;;;;;;;6.20;4.30;;;;;;;24.15;100.00;99773.64;108791;1258;75898;-58
2023/04/29 09:53:26;;;;;;;7.80;4.50;;;;;;;24.10;100.00;99766.50;108689;1257;69167;-58
2023/04/29 09:55:53;;;;;;;4.70;3.60;;;;;;;24.08;100.00;99760.40;108642;1259;74369;-59
2023/04/29 09:58:35;;;;;;;5.50;3.90;;;;;;;23.80;100.00;99759.07;108796;1258;62194;-58
2023/04/29 10:01:03;;;;;;;6.80;3.70;;;;;;;23.36;100.00;99760.00;108750;1258;61530;-59
2023/04/29 10:03:34;;;;;;;4.50;3.50;;;;;;;22.92;100.00;99755.55;108775;1258;74202;-61
2023/04/29 10:06:03;;;;;;;5.80;3.50;;;;;;;22.64;100.00;99757.21;108778;1260;67820;-58
2023/04/29 10:08:31;;;;;;;4.10;3.40;;;;;;;22.69;100.00;99757.17;108756;1258;74543;-62
2023/04/29 10:11:00;;;;;;;4.80;3.50;;;;;;;22.68;100.00;99757.02;108786;1257;62854;-57
2023/04/29 10:13:27;;;;;;;5.40;3.70;;;;;;;22.56;100.00;99746.98;108806;1257;62461;-59
2023/04/29 10:15:57;;;;;;;7.60;3.20;;;;;;;22.51;100.00;99745.96;108787;1259;75657;-59
2023/04/29 10:18:36;;;;;;;4.80;3.00;;;;;;;22.39;100.00;99739.06;108843;1257;68238;-58
2023/04/29 10:21:17;;;;;;;5.60;3.70;;;;;;;22.20;100.00;99741.91;108679;1257;73641;-59
2023/04/29 10:23:44;;;;;;;4.00;2.70;;;;;;;22.11;100.00;99741.18;108682;1258;61487;-59
2023/04/29 10:26:11;;;;;;;7.50;4.10;;;;;;;22.06;100.00;99744.74;108816;1258;62732;-60
2023/04/29 10:28:38;;;;;;;6.20;3.20;;;;;;;21.95;100.00;99749.04;108661;1258;75697;-58
2023/04/29 10:31:06;;;;;;;4.70;3.20;;;;;;;21.75;100.00;99745.91;108800;1257;69188;-62
2023/04/29 10:33:33;;;;;;;5.60;3.40;;;;;;;21.44;100.00;99746.23;108792;1258;74820;-59
2023/04/29 10:36:01;;;;;;;3.90;2.90;;;;;;;21.34;100.00;99749.41;108707;1259;62464;-59
2023/04/29 10:38:39;;;;;;;7.60;3.20;;;;;;;21.51;100.00;99751.10;108654;1257;62436;-59
2023/04/29 10:41:14;;;;;;;7.40;4.00;;;;;;;21.79;100.00;99751.05;108675;1260;75926;-62
2023/04/29 10:43:41;;;;;;;5.20;3.40;;;;;;;22.12;100.00;99750.63;108765;1257;69015;-58
2023/04/29 10:46:22;;;;;;;5.20;3.10;;;;;;;22.45;100.00;99754.02;108799;1258;74825;-58
2023/04/29 10:48:59;;;;;;;4.60;3.00;;;;;;;22.74;100.00;99760.38;108622;1257;62673;-58
2023/04/29 10:51:33;;;;;;;4.00;2.70;;;;;;;22.65;100.00;99762.09;108839;1257;61983;-59
2023/04/29 10:54:02;;;;;;;5.60;3.40;;;;;;;22.53;100.00;99752.95;108776;1257;74524;-59
2023/04/29 10:56:39;;;;;;;4.80;3.40;;;;;;;22.35;100.00;99754.70;108717;1258;68691;-59
2023/04/29 10:59:11;;;;;;;5.10;3.30;;;;;;;22.09;100.00;99755.27;108784;1257;74881;-58
2023/04/29 11:01:43;;;;;;;5.40;3.20;;;;;;;21.85;100.00;99761.17;108641;1257;61445;-59
2023/04/29 11:04:11;;;;;;;4.90;3.30;;;;;;;21.57;100.00;99764.52;108709;1260;61241;-61
2023/04/29 11:06:40;;;;;;;5.40;3.60;;;;;;;21.36;100.00;99765.70;108743;1259;76000;-59
2023/04/29 11:09:13;;;;;;;5.90;3.50;;;;;;;21.28;100.00;99760.37;108787;1257;67969;-59
2023/04/29 11:12:02;;;;;;;7.00;3.30;;;;;;;21.42;100.00;99755.45;108748;1257;73760;-60
2023/04/29 11:14:49;;;;;;;5.60;3.30;;;;;;;21.48;100.00;99748.14;108763;1257;62799;-59
2023/04/29 11:17:22;;;;;;;4.60;3.30;;;;;;;21.46;100.00;99749.35;108747;1257;61823;-62
2023/04/29 11:19:49;;;;;;;5.10;3.40;;;;;;;21.47;100.00;99745.31;108880;1257;76230;-59
2023/04/29 11:22:17;;;;;;;8.60;3.00;;;;;;;21.44;100.00;99737.64;108899;1257;69202;-59
2023/04/29 11:24:59;;;;;;;6.10;3.60;;;;;;;21.45;100.00;99736.58;108832;1257;74491;-60
2023/04/29 11:27:32;;;;;;;4.80;3.50;;;;;;;21.46;100.00;99741.61;108647;1259;63051;-59
2023/04/29 11:30:02;;;;;;;5.60;3.40;;;;;;;21.45;100.00;99749.36;108781;1257;62212;-59